Time;durP1;ratioP1;P1;durP2;ratioP2;P2;SDS_P1;SDS_P2;PMS_P1;PMS_P2;Temp;Humidity;BMP_temperature;BMP_pressure;BME280_temperature;BME280_humidity;BME280_pressure;Samples;Min_cycle;Max_cycle;Signal;HPM_P1;HPM_P2
2022/10/21 00:02:20;;;;;;;27.45;16.52;;;10.10;99.90;;;;;;4975217;28;20376;-72
2022/10/21 00:04:46;;;;;;;26.75;16.48;;;10.10;99.90;;;;;;4978736;28;20105;-72
2022/10/21 00:07:12;;;;;;;26.17;15.43;;;10.10;99.90;;;;;;4991496;28;20034;-72
2022/10/21 00:09:37;;;;;;;29.13;16.73;;;10.10;99.90;;;;;;4998603;28;20026;-73
2022/10/21 00:12:03;;;;;;;26.40;16.63;;;10.00;99.90;;;;;;4995838;28;20513;-73
2022/10/21 00:14:29;;;;;;;29.08;17.48;;;10.00;99.90;;;;;;4997926;28;20034;-73
2022/10/21 00:16:54;;;;;;;32.00;17.42;;;10.10;99.90;;;;;;4996917;28;20030;-73
2022/10/21 00:19:20;;;;;;;26.80;16.52;;;10.00;99.90;;;;;;4993802;28;20041;-72
2022/10/21 00:21:46;;;;;;;26.80;16.77;;;10.00;99.90;;;;;;4997167;28;20097;-72
2022/10/21 00:24:11;;;;;;;30.23;16.83;;;10.00;99.90;;;;;;5000571;28;20062;-72
2022/10/21 00:26:37;;;;;;;26.52;16.83;;;10.00;99.90;;;;;;4991562;28;20034;-72
2022/10/21 00:29:03;;;;;;;29.25;16.50;;;10.00;99.90;;;;;;4992314;28;20057;-72
2022/10/21 00:31:29;;;;;;;26.00;16.23;;;10.00;99.90;;;;;;4995536;28;20524;-72
2022/10/21 00:33:55;;;;;;;28.02;16.70;;;10.10;99.90;;;;;;4996204;28;20032;-72
2022/10/21 00:36:20;;;;;;;27.10;16.33;;;10.00;99.90;;;;;;4993269;28;20591;-73
2022/10/21 00:38:47;;;;;;;33.08;17.10;;;10.10;99.90;;;;;;4993738;28;20036;-72
2022/10/21 00:41:14;;;;;;;31.30;17.63;;;10.10;99.90;;;;;;4986024;28;20138;-72
2022/10/21 00:43:59;;;;;;;28.75;17.92;;;10.10;99.90;;;;;;4982824;28;20299;-72
2022/10/21 00:46:52;;;;;;;30.13;17.50;;;10.20;99.90;;;;;;4983573;28;20038;-73
2022/10/21 00:49:23;;;;;;;36.00;18.13;;;10.20;99.90;;;;;;4970714;28;20026;-73
2022/10/21 00:51:51;;;;;;;;;;;10.20;99.90;;;;;;4969953;28;20085;-73
2022/10/21 00:54:19;;;;;;;28.92;15.80;;;10.10;99.90;;;;;;4962708;28;20334;-72
2022/10/21 00:56:46;;;;;;;26.83;17.00;;;10.20;99.90;;;;;;4984551;28;20028;-72
2022/10/21 00:59:13;;;;;;;28.13;16.45;;;10.20;99.90;;;;;;4984253;28;20022;-72
2022/10/21 01:01:39;;;;;;;24.02;16.10;;;10.20;99.90;;;;;;4969893;28;20031;-72
2022/10/21 01:04:05;;;;;;;31.05;17.13;;;10.20;99.90;;;;;;4971197;28;20576;-73
2022/10/21 01:06:31;;;;;;;32.80;17.17;;;10.20;99.90;;;;;;4984612;28;20133;-75
2022/10/21 01:08:58;;;;;;;30.48;17.13;;;10.20;99.90;;;;;;4968229;28;20077;-73
2022/10/21 01:11:25;;;;;;;24.75;16.05;;;10.20;99.90;;;;;;4983831;28;20545;-73
2022/10/21 01:13:59;;;;;;;26.42;16.42;;;10.20;99.90;;;;;;4963771;28;20026;-72
2022/10/21 01:16:32;;;;;;;25.90;16.08;;;10.30;99.90;;;;;;4981486;28;21272;-72
2022/10/21 01:19:21;;;;;;;24.63;16.85;;;10.30;99.90;;;;;;4982650;28;20034;-74
2022/10/21 01:21:52;;;;;;;26.80;16.42;;;10.30;99.90;;;;;;4983759;28;20053;-74
2022/10/21 01:24:54;;;;;;;27.70;16.15;;;10.30;99.90;;;;;;4986577;28;20417;-72
2022/10/21 01:28:14;;;;;;;27.60;16.08;;;10.30;99.90;;;;;;4969110;28;20081;-72
2022/10/21 01:30:59;;;;;;;28.88;16.38;;;10.30;99.90;;;;;;4921778;29;20032;-72
2022/10/21 01:33:38;;;;;;;26.58;16.40;;;10.30;99.90;;;;;;4966980;28;20172;-75
2022/10/21 01:36:34;;;;;;;29.23;16.65;;;10.30;99.90;;;;;;4974327;28;20038;-74
2022/10/21 01:39:15;;;;;;;30.67;17.60;;;10.30;99.90;;;;;;4984686;28;20040;-74
2022/10/21 01:41:47;;;;;;;31.92;16.85;;;10.20;99.90;;;;;;4978319;28;20022;-73
2022/10/21 01:44:42;;;;;;;33.13;17.60;;;10.20;99.90;;;;;;4968284;28;20022;-72
2022/10/21 01:47:20;;;;;;;32.28;17.25;;;10.20;99.90;;;;;;4987948;28;20042;-74
2022/10/21 01:50:19;;;;;;;27.40;18.05;;;10.20;99.90;;;;;;4995942;28;20030;-72
2022/10/21 01:52:50;;;;;;;26.02;16.65;;;10.10;99.90;;;;;;4966037;28;20067;-72
2022/10/21 01:55:20;;;;;;;33.47;18.90;;;10.10;99.90;;;;;;4966708;28;20780;-72
2022/10/21 01:57:52;;;;;;;27.47;16.87;;;10.10;99.90;;;;;;4984724;28;20842;-72
2022/10/21 02:00:18;;;;;;;26.98;16.42;;;10.20;99.90;;;;;;4979079;28;20061;-72
2022/10/21 02:02:48;;;;;;;25.40;16.08;;;10.10;99.90;;;;;;4983541;28;20500;-71
2022/10/21 02:05:20;;;;;;;27.30;17.45;;;10.20;99.90;;;;;;4968731;28;20053;-72
2022/10/21 02:07:46;;;;;;;27.13;17.20;;;10.10;99.90;;;;;;4988589;28;20045;-74
2022/10/21 02:10:12;;;;;;;32.05;17.02;;;10.20;99.90;;;;;;4985366;28;20506;-74
2022/10/21 02:12:40;;;;;;;27.10;17.92;;;10.20;99.90;;;;;;4994664;28;20037;-73
2022/10/21 02:15:09;;;;;;;28.73;17.23;;;10.20;99.90;;;;;;4990121;28;20034;-74
2022/10/21 02:17:38;;;;;;;33.55;18.10;;;10.20;99.90;;;;;;4993831;28;20042;-73
2022/10/21 02:20:08;;;;;;;33.53;16.95;;;10.10;99.90;;;;;;4991725;28;20060;-73
2022/10/21 02:22:36;;;;;;;31.00;17.50;;;10.10;99.90;;;;;;4995897;28;20081;-73
2022/10/21 02:25:16;;;;;;;26.20;16.33;;;10.10;99.90;;;;;;4983560;28;20045;-73
2022/10/21 02:27:42;;;;;;;26.75;16.80;;;10.10;99.90;;;;;;4969462;28;20018;-73
2022/10/21 02:30:08;;;;;;;25.60;16.45;;;10.10;99.90;;;;;;4981393;28;20033;-73
2022/10/21 02:32:37;;;;;;;29.35;17.02;;;10.10;99.90;;;;;;4995346;28;20022;-73
2022/10/21 02:35:04;;;;;;;29.83;16.50;;;10.10;99.90;;;;;;4994199;28;20510;-72
2022/10/21 02:37:39;;;;;;;30.00;16.48;;;10.10;99.90;;;;;;4980153;28;20045;-72
2022/10/21 02:40:12;;;;;;;28.85;16.33;;;10.10;99.90;;;;;;4991995;28;20585;-73
2022/10/21 02:42:43;;;;;;;24.27;16.05;;;10.10;99.90;;;;;;4962839;28;20031;-73
2022/10/21 02:45:09;;;;;;;28.52;16.63;;;10.00;99.90;;;;;;4984992;28;20640;-73
2022/10/21 02:47:37;;;;;;;27.08;16.17;;;10.10;99.90;;;;;;4989075;28;20061;-73
2022/10/21 02:50:03;;;;;;;29.40;17.58;;;10.00;99.90;;;;;;4983855;28;20092;-73
2022/10/21 02:52:29;;;;;;;27.75;16.33;;;10.00;99.90;;;;;;4969973;28;20022;-73
2022/10/21 02:54:55;;;;;;;28.50;17.23;;;10.00;99.90;;;;;;4982828;28;20026;-73
2022/10/21 02:57:20;;;;;;;30.65;17.17;;;10.00;99.90;;;;;;4979823;28;20450;-73
2022/10/21 02:59:46;;;;;;;30.80;17.85;;;10.00;99.90;;;;;;4987960;28;20174;-72
2022/10/21 03:02:12;;;;;;;29.75;17.23;;;10.00;99.90;;;;;;4984110;28;20034;-73
2022/10/21 03:04:37;;;;;;;31.15;17.02;;;10.00;99.90;;;;;;4985305;28;20030;-73
2022/10/21 03:07:03;;;;;;;29.63;17.60;;;10.00;99.90;;;;;;4990841;28;20105;-73
2022/10/21 03:09:29;;;;;;;30.00;17.02;;;10.00;99.90;;;;;;4974000;28;20485;-73
2022/10/21 03:11:54;;;;;;;29.65;17.50;;;10.10;99.90;;;;;;4980605;28;20116;-73
2022/10/21 03:14:20;;;;;;;28.05;15.60;;;10.10;99.90;;;;;;4984745;28;20116;-74
2022/10/21 03:16:46;;;;;;;31.17;17.92;;;10.10;99.90;;;;;;4966877;28;20026;-73
2022/10/21 03:19:12;;;;;;;27.88;17.42;;;10.10;99.90;;;;;;4980677;28;20501;-73
2022/10/21 03:21:38;;;;;;;28.23;16.48;;;10.10;99.90;;;;;;4972427;28;20434;-73
2022/10/21 03:24:03;;;;;;;27.77;16.27;;;10.10;99.90;;;;;;4985960;28;20030;-73
2022/10/21 03:26:29;;;;;;;25.88;16.35;;;10.10;99.90;;;;;;4979665;28;20931;-73
2022/10/21 03:28:55;;;;;;;27.40;17.38;;;10.10;99.90;;;;;;4979132;28;20098;-73
2022/10/21 03:31:21;;;;;;;30.80;16.77;;;10.10;99.90;;;;;;4981614;28;20112;-73
2022/10/21 03:33:46;;;;;;;24.65;15.77;;;10.10;99.90;;;;;;4980944;28;20050;-73
2022/10/21 03:36:12;;;;;;;28.08;15.35;;;10.10;99.90;;;;;;4982598;28;20030;-73
2022/10/21 03:38:38;;;;;;;28.17;16.42;;;10.00;99.90;;;;;;4982650;28;20022;-74
2022/10/21 03:41:04;;;;;;;30.73;16.05;;;10.10;99.90;;;;;;4985923;28;20036;-73
2022/10/21 03:43:29;;;;;;;28.55;16.20;;;10.00;99.90;;;;;;4980398;28;20548;-73
2022/10/21 03:45:55;;;;;;;28.23;16.17;;;10.00;99.90;;;;;;4987046;28;20038;-73
2022/10/21 03:48:21;;;;;;;24.17;14.13;;;10.00;99.90;;;;;;4967961;28;20065;-73
2022/10/21 03:50:46;;;;;;;28.73;16.83;;;10.00;99.90;;;;;;4985510;28;20061;-73
2022/10/21 03:53:12;;;;;;;32.60;16.27;;;10.00;99.90;;;;;;4979367;28;20037;-73
2022/10/21 03:55:38;;;;;;;23.63;14.77;;;10.00;99.90;;;;;;4965457;28;20031;-73
2022/10/21 03:58:03;;;;;;;23.98;15.40;;;10.00;99.90;;;;;;4982523;28;20085;-74
2022/10/21 04:00:29;;;;;;;24.30;15.43;;;10.00;99.90;;;;;;4981287;28;20046;-74
2022/10/21 04:02:55;;;;;;;25.55;15.27;;;9.90;99.90;;;;;;4978856;28;20377;-73
2022/10/21 04:05:20;;;;;;;26.17;15.77;;;9.90;99.90;;;;;;4961524;28;20026;-73
2022/10/21 04:07:46;;;;;;;26.77;15.18;;;10.00;99.90;;;;;;4979935;28;20034;-73
2022/10/21 04:10:12;;;;;;;33.88;16.92;;;10.00;99.90;;;;;;4977233;28;20044;-73
2022/10/21 04:12:38;;;;;;;29.30;16.23;;;10.00;99.90;;;;;;4984429;28;20026;-73
2022/10/21 04:15:05;;;;;;;28.73;16.00;;;9.90;99.90;;;;;;4986305;28;20101;-73
2022/10/21 04:17:31;;;;;;;27.25;15.90;;;9.90;99.90;;;;;;4987186;28;20034;-75
2022/10/21 04:19:57;;;;;;;25.23;15.57;;;9.90;99.90;;;;;;4980067;28;20033;-73
2022/10/21 04:22:23;;;;;;;24.95;15.50;;;9.90;99.90;;;;;;4998795;28;20033;-73
2022/10/21 04:24:48;;;;;;;24.60;15.10;;;9.90;99.90;;;;;;4993382;28;20096;-74
2022/10/21 04:27:14;;;;;;;27.75;15.50;;;9.90;99.90;;;;;;4985044;28;20053;-73
2022/10/21 04:29:40;;;;;;;33.85;15.77;;;9.90;99.90;;;;;;4971564;28;20070;-73
2022/10/21 04:32:06;;;;;;;28.05;17.52;;;9.90;99.90;;;;;;4987760;28;20065;-73
2022/10/21 04:34:31;;;;;;;29.85;15.90;;;9.90;99.90;;;;;;4987369;28;20035;-73
2022/10/21 04:36:57;;;;;;;31.60;16.25;;;9.90;99.90;;;;;;4988526;28;20058;-73
2022/10/21 04:39:23;;;;;;;26.85;15.88;;;9.90;99.90;;;;;;5003454;28;20054;-73
2022/10/21 04:41:51;;;;;;;23.27;15.20;;;9.90;99.90;;;;;;4989216;28;20079;-73
2022/10/21 04:44:17;;;;;;;29.23;16.73;;;9.90;99.90;;;;;;4978667;28;20027;-73
2022/10/21 04:46:43;;;;;;;28.05;15.93;;;9.90;99.90;;;;;;4980376;28;20514;-73
2022/10/21 04:49:09;;;;;;;26.73;15.50;;;9.90;99.90;;;;;;4980130;28;20041;-74
2022/10/21 04:51:35;;;;;;;26.88;16.23;;;9.90;99.90;;;;;;4981338;28;20031;-73
2022/10/21 04:54:00;;;;;;;26.05;15.70;;;9.90;99.90;;;;;;4982795;28;20034;-73
2022/10/21 04:56:26;;;;;;;28.23;17.48;;;9.90;99.90;;;;;;4982967;28;20038;-73
2022/10/21 04:58:52;;;;;;;25.25;15.43;;;9.90;99.90;;;;;;4982576;28;20030;-73
2022/10/21 05:01:17;;;;;;;26.30;16.30;;;9.90;99.90;;;;;;4967686;28;20066;-73
2022/10/21 05:03:43;;;;;;;26.15;16.05;;;9.90;99.90;;;;;;4992200;28;20035;-73
2022/10/21 05:06:09;;;;;;;26.23;16.67;;;9.90;99.90;;;;;;4985049;28;20029;-73
2022/10/21 05:08:34;;;;;;;26.17;16.63;;;9.90;99.90;;;;;;4994385;28;20022;-73
2022/10/21 05:11:01;;;;;;;28.38;17.63;;;9.80;99.90;;;;;;4989332;28;20034;-73
2022/10/21 05:13:28;;;;;;;27.45;16.65;;;9.80;99.90;;;;;;4999886;28;20034;-73
2022/10/21 05:16:01;;;;;;;27.95;15.98;;;9.80;99.90;;;;;;4992510;28;20023;-73
2022/10/21 05:18:27;;;;;;;25.38;15.43;;;9.80;99.90;;;;;;4983002;28;20025;-74
2022/10/21 05:20:53;;;;;;;31.75;16.80;;;9.80;99.90;;;;;;4974791;28;20454;-74
2022/10/21 05:23:19;;;;;;;29.98;16.98;;;9.80;99.90;;;;;;4972295;28;20030;-73
2022/10/21 05:25:46;;;;;;;29.95;16.05;;;9.80;99.90;;;;;;4997145;28;20445;-74
2022/10/21 05:28:12;;;;;;;27.38;16.38;;;9.80;99.90;;;;;;4988618;28;20023;-74
2022/10/21 05:30:38;;;;;;;28.85;16.95;;;9.80;99.90;;;;;;4989860;28;20030;-73
2022/10/21 05:33:03;;;;;;;29.75;17.23;;;9.80;99.90;;;;;;4964243;28;20041;-73
2022/10/21 05:35:29;;;;;;;26.42;16.17;;;9.80;99.90;;;;;;4990984;28;20542;-73
2022/10/21 05:37:55;;;;;;;24.05;14.90;;;9.80;99.90;;;;;;4976113;28;20053;-74
2022/10/21 05:40:22;;;;;;;29.35;16.35;;;9.80;99.90;;;;;;4986584;28;20026;-74
2022/10/21 05:42:47;;;;;;;30.33;15.95;;;9.80;99.90;;;;;;4982982;28;20120;-73
2022/10/21 05:45:13;;;;;;;23.80;15.32;;;9.80;99.90;;;;;;4989457;28;20069;-74
2022/10/21 05:47:42;;;;;;;31.35;16.92;;;9.80;99.90;;;;;;4970735;28;20031;-75
2022/10/21 05:50:10;;;;;;;25.55;16.17;;;9.80;99.90;;;;;;4990882;28;20030;-73
2022/10/21 05:52:35;;;;;;;27.15;16.55;;;9.80;99.90;;;;;;4963197;28;20022;-73
2022/10/21 05:55:01;;;;;;;27.42;16.73;;;9.80;99.90;;;;;;4983428;28;20030;-73
2022/10/21 05:57:27;;;;;;;24.75;15.70;;;9.90;99.90;;;;;;4963455;28;20053;-73
2022/10/21 05:59:52;;;;;;;23.65;15.27;;;9.80;99.90;;;;;;4979381;28;20038;-73
2022/10/21 06:02:18;;;;;;;25.42;17.10;;;9.80;99.90;;;;;;4977172;28;20026;-73
2022/10/21 06:04:44;;;;;;;28.77;15.63;;;9.80;99.90;;;;;;4947778;28;20065;-74
2022/10/21 06:07:09;;;;;;;29.10;16.35;;;9.90;99.90;;;;;;4982278;28;20049;-73
2022/10/21 06:09:36;;;;;;;27.02;16.77;;;9.90;99.90;;;;;;4989055;28;20044;-73
2022/10/21 06:12:02;;;;;;;29.13;16.55;;;9.90;99.90;;;;;;4995249;28;20430;-73
2022/10/21 06:14:28;;;;;;;26.73;16.17;;;9.90;99.90;;;;;;4986732;28;20312;-73
2022/10/21 06:16:54;;;;;;;28.67;16.73;;;9.90;99.90;;;;;;4993889;28;20835;-73
2022/10/21 06:19:19;;;;;;;25.23;16.38;;;9.90;99.90;;;;;;4986367;28;20538;-73
2022/10/21 06:21:47;;;;;;;28.65;16.65;;;9.90;99.90;;;;;;4975961;28;20576;-74
2022/10/21 06:24:12;;;;;;;26.65;16.13;;;9.90;99.90;;;;;;4998288;28;20026;-73
2022/10/21 06:26:38;;;;;;;23.75;15.48;;;10.60;99.90;;;;;;4989702;28;20510;-73
2022/10/21 06:29:05;;;;;;;27.75;15.63;;;10.40;99.90;;;;;;4989167;28;20033;-73
2022/10/21 06:31:30;;;;;;;23.45;14.75;;;10.20;99.90;;;;;;4973956;28;20553;-73
2022/10/21 06:33:56;;;;;;;26.23;15.82;;;10.20;99.90;;;;;;4967871;28;20030;-73
2022/10/21 06:36:21;;;;;;;27.63;16.10;;;10.10;99.90;;;;;;4987277;28;20402;-73
2022/10/21 06:38:47;;;;;;;29.00;15.38;;;10.10;99.90;;;;;;4986413;28;20034;-73
2022/10/21 06:41:14;;;;;;;24.80;17.10;;;10.10;99.90;;;;;;4981424;28;20061;-74
2022/10/21 06:43:41;;;;;;;25.05;15.18;;;10.10;99.90;;;;;;4987149;28;20034;-74
2022/10/21 06:46:10;;;;;;;25.88;15.80;;;10.20;99.90;;;;;;4990571;28;20422;-73
2022/10/21 06:48:36;;;;;;;29.77;16.90;;;10.20;99.90;;;;;;4965567;28;20034;-73
2022/10/21 06:51:17;;;;;;;26.77;16.77;;;10.20;99.90;;;;;;4993248;28;20062;-74
2022/10/21 06:53:43;;;;;;;28.70;16.55;;;10.20;99.90;;;;;;4953590;28;20177;-73
2022/10/21 06:56:15;;;;;;;29.52;16.98;;;10.20;99.90;;;;;;4977811;28;20054;-73
2022/10/21 06:58:45;;;;;;;25.90;16.15;;;10.20;99.90;;;;;;4978550;28;20038;-73
2022/10/21 07:01:20;;;;;;;24.90;16.17;;;10.20;99.90;;;;;;4975911;28;20022;-73
2022/10/21 07:03:45;;;;;;;30.05;17.55;;;10.20;99.90;;;;;;4964425;28;20026;-73
2022/10/21 07:06:12;;;;;;;27.08;16.75;;;10.30;99.90;;;;;;4984914;28;20022;-74
2022/10/21 07:08:38;;;;;;;26.75;16.33;;;10.30;99.90;;;;;;4978103;28;20166;-74
2022/10/21 07:11:06;;;;;;;26.70;16.52;;;10.30;99.90;;;;;;4964878;28;20042;-73
2022/10/21 07:13:34;;;;;;;24.48;16.02;;;10.30;99.90;;;;;;4965050;28;20048;-73
2022/10/21 07:16:00;;;;;;;29.95;17.60;;;10.30;99.90;;;;;;4953800;28;20497;-72
2022/10/21 07:18:26;;;;;;;26.95;16.77;;;10.30;99.90;;;;;;4974471;28;20029;-72
2022/10/21 07:20:52;;;;;;;27.05;15.70;;;10.40;99.90;;;;;;4985330;28;20030;-73
2022/10/21 07:23:18;;;;;;;25.73;16.48;;;10.40;99.90;;;;;;4979810;28;20433;-73
2022/10/21 07:25:44;;;;;;;24.58;16.33;;;10.40;99.90;;;;;;4964660;28;20375;-71
2022/10/21 07:28:10;;;;;;;26.98;16.27;;;10.40;99.90;;;;;;4990331;28;20290;-74
2022/10/21 07:30:41;;;;;;;25.42;16.15;;;10.40;99.90;;;;;;4987457;28;20447;-73
2022/10/21 07:33:07;;;;;;;27.48;15.60;;;10.40;99.90;;;;;;4990865;28;20057;-71
2022/10/21 07:35:33;;;;;;;28.05;16.83;;;10.40;99.90;;;;;;4988555;28;20030;-72
2022/10/21 07:37:58;;;;;;;25.95;16.70;;;10.40;99.90;;;;;;4990317;28;20046;-72
2022/10/21 07:40:25;;;;;;;26.25;16.48;;;10.40;99.90;;;;;;4988042;28;20022;-74
2022/10/21 07:42:51;;;;;;;31.30;17.58;;;10.40;99.90;;;;;;4973421;28;20057;-73
2022/10/21 07:45:17;;;;;;;23.00;15.77;;;10.40;99.90;;;;;;4990474;28;20037;-72
2022/10/21 07:47:43;;;;;;;26.13;16.05;;;10.50;99.90;;;;;;4989450;28;20030;-71
2022/10/21 07:50:09;;;;;;;25.40;15.93;;;10.50;99.90;;;;;;4979708;28;20030;-73
2022/10/21 07:52:34;;;;;;;27.33;17.35;;;10.50;99.90;;;;;;4969434;28;20022;-72
2022/10/21 07:55:01;;;;;;;25.33;16.17;;;10.50;99.90;;;;;;4997009;28;20030;-73
2022/10/21 07:57:26;;;;;;;26.75;17.30;;;10.50;99.90;;;;;;4992820;28;20030;-71
2022/10/21 07:59:52;;;;;;;27.02;17.08;;;10.50;99.90;;;;;;4988823;28;20038;-72
2022/10/21 08:02:18;;;;;;;28.30;17.08;;;10.50;99.90;;;;;;4991433;28;20034;-72
2022/10/21 08:04:44;;;;;;;28.77;16.02;;;10.50;99.90;;;;;;4991494;28;20030;-74
2022/10/21 08:07:09;;;;;;;27.45;16.88;;;10.60;99.90;;;;;;4990121;28;20034;-73
2022/10/21 08:09:35;;;;;;;22.98;15.57;;;10.60;99.90;;;;;;4997432;28;20408;-73
2022/10/21 08:12:01;;;;;;;25.85;17.10;;;10.70;99.90;;;;;;4993663;28;20042;-74
2022/10/21 08:14:26;;;;;;;26.25;16.98;;;10.80;99.90;;;;;;4972332;28;20581;-73
2022/10/21 08:16:53;;;;;;;26.65;16.55;;;10.80;99.90;;;;;;4992563;28;20022;-73
2022/10/21 08:19:23;;;;;;;27.00;17.08;;;10.80;99.90;;;;;;4991473;28;20022;-73
2022/10/21 08:21:49;;;;;;;24.35;16.42;;;10.80;99.90;;;;;;4974461;28;20089;-74
2022/10/21 08:24:14;;;;;;;26.10;17.17;;;10.80;99.90;;;;;;4973491;28;20022;-73
2022/10/21 08:26:40;;;;;;;28.17;16.77;;;10.90;99.90;;;;;;4988586;28;20108;-73
2022/10/21 08:29:06;;;;;;;25.33;16.23;;;10.90;99.90;;;;;;4999121;28;20608;-72
2022/10/21 08:31:32;;;;;;;27.17;15.63;;;11.10;99.90;;;;;;4984155;28;20038;-73
2022/10/21 08:33:58;;;;;;;22.35;15.38;;;11.20;99.90;;;;;;4989145;28;20040;-73
2022/10/21 08:36:25;;;;;;;26.20;16.10;;;11.30;99.90;;;;;;4977278;28;20042;-72
2022/10/21 08:38:51;;;;;;;24.40;16.50;;;11.40;99.90;;;;;;4996395;28;20074;-73
2022/10/21 08:41:29;;;;;;;29.00;16.80;;;11.40;99.90;;;;;;4993872;28;20029;-73
2022/10/21 08:44:00;;;;;;;23.42;15.75;;;11.30;99.90;;;;;;5001192;28;20029;-72
2022/10/21 08:46:36;;;;;;;21.55;15.65;;;11.30;99.90;;;;;;4998334;28;20026;-72
2022/10/21 08:49:17;;;;;;;27.75;16.85;;;11.30;99.90;;;;;;4990852;28;20040;-74
2022/10/21 08:51:59;;;;;;;27.30;16.80;;;11.40;99.90;;;;;;4960697;28;20034;-72
2022/10/21 08:54:46;;;;;;;23.52;16.02;;;11.40;99.90;;;;;;4991900;28;20080;-72
2022/10/21 08:57:12;;;;;;;26.02;15.88;;;11.40;99.90;;;;;;5000082;28;20369;-72
2022/10/21 08:59:41;;;;;;;25.95;16.77;;;11.40;99.90;;;;;;4964963;28;20086;-73
2022/10/21 09:02:38;;;;;;;20.63;15.27;;;11.40;99.90;;;;;;4973060;28;20460;-73
2022/10/21 09:05:45;;;;;;;28.10;17.30;;;11.40;99.90;;;;;;4975028;28;20037;-73
2022/10/21 09:08:13;;;;;;;25.67;15.68;;;11.40;99.90;;;;;;4895290;29;20086;-73
2022/10/21 09:10:56;;;;;;;23.25;15.23;;;11.50;99.90;;;;;;4881215;29;20580;-73
2022/10/21 09:13:48;;;;;;;23.15;16.52;;;11.50;99.90;;;;;;4880441;29;20056;-74
2022/10/21 09:16:55;;;;;;;25.17;15.75;;;11.50;99.90;;;;;;4895226;29;22126;-74
2022/10/21 09:19:54;;;;;;;25.25;17.05;;;11.60;99.90;;;;;;4879792;29;20059;-73
2022/10/21 09:22:55;;;;;;;29.73;15.02;;;11.60;99.90;;;;;;4864793;29;20051;-73
2022/10/21 09:25:46;;;;;;;24.65;15.80;;;11.70;99.90;;;;;;4883524;29;20044;-73
2022/10/21 09:28:14;;;;;;;24.27;16.02;;;11.70;99.90;;;;;;4879100;29;20394;-73
2022/10/21 09:30:42;;;;;;;24.13;16.00;;;11.80;99.90;;;;;;4912969;29;20031;-74
2022/10/21 09:33:23;;;;;;;31.80;17.17;;;11.90;99.90;;;;;;4906783;29;20040;-73
2022/10/21 09:35:51;;;;;;;;;;;11.90;99.90;;;;;;4908492;29;20035;-73
2022/10/21 09:38:21;;;;;;;25.85;15.93;;;11.90;99.90;;;;;;4888790;29;19918;-73
2022/10/21 09:40:51;;;;;;;24.63;15.50;;;11.90;99.90;;;;;;4903181;29;20032;-73
2022/10/21 09:43:21;;;;;;;24.77;16.30;;;11.90;99.90;;;;;;4908966;29;20028;-73
2022/10/21 09:45:48;;;;;;;24.40;15.85;;;11.90;99.90;;;;;;4960459;28;20047;-74
2022/10/21 09:48:17;;;;;;;25.15;15.50;;;11.80;99.90;;;;;;4972160;28;20049;-73
2022/10/21 09:50:57;;;;;;;24.55;17.00;;;11.80;99.90;;;;;;4987548;28;20533;-73
2022/10/21 09:53:42;;;;;;;25.50;17.02;;;11.80;99.90;;;;;;4987824;28;20065;-73
2022/10/21 09:56:23;;;;;;;27.17;17.25;;;11.70;99.90;;;;;;4926183;28;20042;-73
2022/10/21 09:59:16;;;;;;;25.08;15.13;;;11.70;99.90;;;;;;4980608;28;20130;-73
2022/10/21 10:01:43;;;;;;;21.55;15.30;;;11.80;99.90;;;;;;4985741;28;20050;-73
2022/10/21 10:04:32;;;;;;;21.73;14.52;;;12.20;99.90;;;;;;4992647;28;20054;-74
2022/10/21 10:07:18;;;;;;;21.80;13.90;;;12.90;99.90;;;;;;4986837;28;20057;-74
2022/10/21 10:09:45;;;;;;;20.13;13.27;;;13.60;99.90;;;;;;4992650;28;20061;-73
2022/10/21 10:12:29;;;;;;;20.30;13.73;;;14.30;99.90;;;;;;4991442;28;20167;-73
2022/10/21 10:14:55;;;;;;;17.70;12.32;;;15.00;99.90;;;;;;4964685;28;20117;-73
2022/10/21 10:17:26;;;;;;;18.55;13.50;;;15.40;99.90;;;;;;4988144;28;20380;-74
2022/10/21 10:20:03;;;;;;;17.73;12.65;;;15.60;99.90;;;;;;4991764;28;20458;-74
2022/10/21 10:22:46;;;;;;;17.48;11.52;;;15.60;99.90;;;;;;4989429;28;20030;-73
2022/10/21 10:25:22;;;;;;;17.90;10.73;;;15.70;99.90;;;;;;4994716;28;20045;-73
2022/10/21 10:28:07;;;;;;;13.93;10.55;;;15.80;99.90;;;;;;4994173;28;20065;-73
2022/10/21 10:30:46;;;;;;;15.57;11.38;;;16.00;99.90;;;;;;4974487;28;20030;-73
2022/10/21 10:33:15;;;;;;;17.42;12.15;;;15.70;99.90;;;;;;4986740;28;20137;-73
2022/10/21 10:35:49;;;;;;;16.00;12.15;;;15.60;99.90;;;;;;4997487;28;20121;-74
2022/10/21 10:38:31;;;;;;;18.90;12.40;;;15.90;99.90;;;;;;4987823;28;20498;-73
2022/10/21 10:41:08;;;;;;;23.13;14.88;;;16.00;99.90;;;;;;4967160;28;20027;-73
2022/10/21 10:43:42;;;;;;;15.35;11.40;;;16.20;99.90;;;;;;4983153;28;20033;-73
2022/10/21 10:46:14;;;;;;;16.88;12.07;;;16.50;99.90;;;;;;4968250;28;20040;-74
2022/10/21 10:48:45;;;;;;;15.70;10.82;;;16.60;99.90;;;;;;4966249;28;20026;-73
2022/10/21 10:51:26;;;;;;;16.17;12.02;;;16.60;99.90;;;;;;4987192;28;20091;-75
2022/10/21 10:54:09;;;;;;;;;;;16.30;99.90;;;;;;4992932;28;20102;-74
2022/10/21 10:56:54;;;;;;;12.65;10.13;;;16.20;99.90;;;;;;4992622;28;19920;-75
2022/10/21 10:59:20;;;;;;;15.32;11.38;;;15.70;99.90;;;;;;4983751;28;20386;-74
2022/10/21 11:02:01;;;;;;;16.40;11.27;;;15.50;99.90;;;;;;4990934;28;20034;-74
2022/10/21 11:04:32;;;;;;;13.82;10.18;;;15.20;99.90;;;;;;4989263;28;20026;-73
2022/10/21 11:07:21;;;;;;;13.60;11.13;;;15.10;99.90;;;;;;4968646;28;20113;-73
2022/10/21 11:09:51;;;;;;;15.90;11.40;;;14.90;99.90;;;;;;4961034;28;20030;-73
2022/10/21 11:12:22;;;;;;;15.73;11.63;;;14.70;99.90;;;;;;4975490;28;20099;-74
2022/10/21 11:14:57;;;;;;;17.88;12.30;;;14.60;99.90;;;;;;4990075;28;20037;-74
2022/10/21 11:17:53;;;;;;;16.75;11.85;;;14.60;99.90;;;;;;4979766;28;20394;-74
2022/10/21 11:21:09;;;;;;;15.80;10.95;;;14.50;99.90;;;;;;4993532;28;20026;-72
2022/10/21 11:23:56;;;;;;;18.05;11.90;;;14.50;99.90;;;;;;4984160;28;20509;-73
2022/10/21 11:26:47;;;;;;;14.75;11.00;;;14.50;99.90;;;;;;4995018;28;20057;-74
2022/10/21 11:29:31;;;;;;;19.17;12.70;;;14.50;99.90;;;;;;4988983;28;20037;-73
2022/10/21 11:32:35;;;;;;;15.65;11.75;;;14.50;99.90;;;;;;4992725;28;20056;-73
2022/10/21 11:35:33;;;;;;;18.38;12.40;;;14.50;99.90;;;;;;4911000;29;20399;-73
2022/10/21 11:38:11;;;;;;;21.70;13.48;;;14.40;99.90;;;;;;4913700;29;20039;-73
2022/10/21 11:40:40;;;;;;;20.00;13.80;;;14.30;99.90;;;;;;4918820;29;20678;-74
2022/10/21 11:43:31;;;;;;;19.02;13.80;;;14.30;99.90;;;;;;4919086;29;20038;-74
2022/10/21 11:45:56;;;;;;;18.07;12.57;;;14.20;99.90;;;;;;4901995;29;20048;-73
2022/10/21 11:48:53;;;;;;;19.45;12.95;;;14.20;99.90;;;;;;4914384;29;20046;-74
2022/10/21 11:51:30;;;;;;;16.88;12.27;;;14.30;99.90;;;;;;4899851;29;20493;-73
2022/10/21 11:54:20;;;;;;;23.58;14.63;;;14.30;99.90;;;;;;4907977;29;20035;-73
2022/10/21 11:57:00;;;;;;;17.88;12.80;;;14.20;99.90;;;;;;4831378;29;20049;-73
2022/10/21 11:59:38;;;;;;;13.85;11.10;;;14.30;99.90;;;;;;4841397;29;20038;-74
2022/10/21 12:02:19;;;;;;;16.15;11.70;;;14.30;99.90;;;;;;4835701;29;20129;-73
2022/10/21 12:05:06;;;;;;;16.00;11.80;;;14.30;99.90;;;;;;4843294;29;20076;-73
2022/10/21 12:07:50;;;;;;;15.95;12.45;;;14.30;99.90;;;;;;4826380;29;20117;-73
2022/10/21 12:10:34;;;;;;;21.13;14.43;;;14.30;99.90;;;;;;4843606;29;20034;-73
2022/10/21 12:13:08;;;;;;;18.60;13.40;;;14.40;99.90;;;;;;4895782;29;20044;-74
2022/10/21 12:15:42;;;;;;;17.30;12.35;;;14.40;99.90;;;;;;4912375;29;20071;-74
2022/10/21 12:18:15;;;;;;;19.27;13.70;;;14.50;99.90;;;;;;4917244;29;20395;-73
2022/10/21 12:20:44;;;;;;;18.17;12.68;;;14.50;99.90;;;;;;4910041;29;20517;-73
2022/10/21 12:23:13;;;;;;;17.35;13.23;;;14.50;99.90;;;;;;4912328;29;20036;-73
2022/10/21 12:25:47;;;;;;;17.83;13.20;;;14.60;99.90;;;;;;4915343;29;20180;-73
2022/10/21 12:28:30;;;;;;;20.00;13.88;;;14.60;99.90;;;;;;4920200;29;20076;-74
2022/10/21 12:31:14;;;;;;;11.43;7.63;;;14.60;99.90;;;;;;4909399;29;20027;-73
2022/10/21 12:33:43;;;;;;;10.25;7.50;;;14.80;99.90;;;;;;4952297;28;20080;-73
2022/10/21 12:36:21;;;;;;;13.73;8.60;;;14.90;99.90;;;;;;4989722;28;20030;-73
2022/10/21 12:38:48;;;;;;;13.55;9.52;;;15.10;99.90;;;;;;4987981;28;20022;-74
2022/10/21 12:41:23;;;;;;;13.55;10.55;;;14.90;99.90;;;;;;4970142;28;20026;-73
2022/10/21 12:44:01;;;;;;;15.32;11.55;;;14.90;99.90;;;;;;4992477;28;20137;-73
2022/10/21 12:46:35;;;;;;;15.32;11.70;;;14.80;99.90;;;;;;4996413;28;20026;-73
2022/10/21 12:49:16;;;;;;;20.70;13.57;;;14.80;99.90;;;;;;4981371;28;20037;-73
2022/10/21 12:52:02;;;;;;;;;;;14.80;99.90;;;;;;4972625;28;20027;-73
2022/10/21 12:54:36;;;;;;;16.35;12.52;;;14.70;99.90;;;;;;4990164;28;19993;-74